sensor_id;sensor_type;location;lat;lon;timestamp;pressure;altitude;pressure_sealevel;temperature;humidity
83635;BME280;73596;49.482;11.238;2024-01-15T00:00:33;96823.19;;;-4.45;86.80
83635;BME280;73596;49.482;11.238;2024-01-15T00:02:59;96805.41;;;-4.41;86.53
83635;BME280;73596;49.482;11.238;2024-01-15T00:05:24;96805.31;;;-4.38;86.16
83635;BME280;73596;49.482;11.238;2024-01-15T00:07:49;96802.16;;;-4.44;85.47
83635;BME280;73596;49.482;11.238;2024-01-15T00:10:15;96792.81;;;-4.41;86.31
83635;BME280;73596;49.482;11.238;2024-01-15T00:12:40;96780.16;;;-4.39;85.96
83635;BME280;73596;49.482;11.238;2024-01-15T00:15:05;96792.72;;;-4.38;85.79
83635;BME280;73596;49.482;11.238;2024-01-15T00:17:31;96788.59;;;-4.40;85.68
83635;BME280;73596;49.482;11.238;2024-01-15T00:19:56;96787.75;;;-4.41;84.45
83635;BME280;73596;49.482;11.238;2024-01-15T00:22:23;96775.59;;;-4.28;84.91
83635;BME280;73596;49.482;11.238;2024-01-15T00:24:48;96777.44;;;-4.33;85.08
83635;BME280;73596;49.482;11.238;2024-01-15T00:27:13;96799.47;;;-4.40;84.64
83635;BME280;73596;49.482;11.238;2024-01-15T00:29:39;96776.66;;;-4.35;85.43
83635;BME280;73596;49.482;11.238;2024-01-15T00:32:04;96783.50;;;-4.39;85.78
83635;BME280;73596;49.482;11.238;2024-01-15T00:34:30;96773.50;;;-4.42;85.99
83635;BME280;73596;49.482;11.238;2024-01-15T00:36:55;96775.09;;;-4.39;85.37
83635;BME280;73596;49.482;11.238;2024-01-15T00:39:20;96766.25;;;-4.26;85.96
83635;BME280;73596;49.482;11.238;2024-01-15T00:41:45;96765.34;;;-4.24;84.81
83635;BME280;73596;49.482;11.238;2024-01-15T00:44:11;96766.31;;;-4.28;85.56
83635;BME280;73596;49.482;11.238;2024-01-15T00:46:45;96758.28;;;-4.39;85.92
83635;BME280;73596;49.482;11.238;2024-01-15T00:49:14;96760.88;;;-4.40;85.68
83635;BME280;73596;49.482;11.238;2024-01-15T00:51:40;96757.56;;;-4.42;86.45
83635;BME280;73596;49.482;11.238;2024-01-15T00:54:05;96750.91;;;-4.43;86.03
83635;BME280;73596;49.482;11.238;2024-01-15T00:56:31;96748.31;;;-4.42;85.97
83635;BME280;73596;49.482;11.238;2024-01-15T00:58:56;96748.38;;;-4.43;86.14
83635;BME280;73596;49.482;11.238;2024-01-15T01:01:21;96758.34;;;-4.40;86.99
83635;BME280;73596;49.482;11.238;2024-01-15T01:03:46;96740.06;;;-4.45;86.06
83635;BME280;73596;49.482;11.238;2024-01-15T01:06:12;96745.03;;;-4.44;86.10
83635;BME280;73596;49.482;11.238;2024-01-15T01:08:38;96753.41;;;-4.43;86.82
83635;BME280;73596;49.482;11.238;2024-01-15T01:11:03;96754.19;;;-4.41;87.03
83635;BME280;73596;49.482;11.238;2024-01-15T01:13:28;96775.19;;;-4.42;86.79
83635;BME280;73596;49.482;11.238;2024-01-15T01:15:54;96778.53;;;-4.40;87.27
83635;BME280;73596;49.482;11.238;2024-01-15T01:18:19;96781.84;;;-4.40;86.54
83635;BME280;73596;49.482;11.238;2024-01-15T01:20:44;96791.88;;;-4.38;87.04
83635;BME280;73596;49.482;11.238;2024-01-15T01:23:09;96783.50;;;-4.39;86.80
83635;BME280;73596;49.482;11.238;2024-01-15T01:25:35;96780.91;;;-4.37;87.18
83635;BME280;73596;49.482;11.238;2024-01-15T01:28:00;96763.84;;;-4.29;86.50
83635;BME280;73596;49.482;11.238;2024-01-15T01:30:25;96757.03;;;-4.27;86.30
83635;BME280;73596;49.482;11.238;2024-01-15T01:32:50;96762.88;;;-4.25;86.96
83635;BME280;73596;49.482;11.238;2024-01-15T01:35:16;96760.22;;;-4.22;86.77
83635;BME280;73596;49.482;11.238;2024-01-15T01:37:41;96758.53;;;-4.22;86.47
83635;BME280;73596;49.482;11.238;2024-01-15T01:40:07;96769.53;;;-4.23;86.20
83635;BME280;73596;49.482;11.238;2024-01-15T01:42:32;96759.53;;;-4.26;86.72
83635;BME280;73596;49.482;11.238;2024-01-15T01:44:57;96756.19;;;-4.26;87.08
83635;BME280;73596;49.482;11.238;2024-01-15T01:47:23;96756.94;;;-4.24;87.22
83635;BME280;73596;49.482;11.238;2024-01-15T01:49:51;96759.44;;;-4.23;86.79
83635;BME280;73596;49.482;11.238;2024-01-15T01:52:16;96752.63;;;-4.21;87.13
83635;BME280;73596;49.482;11.238;2024-01-15T01:54:42;96752.38;;;-4.13;86.89
83635;BME280;73596;49.482;11.238;2024-01-15T01:57:07;96750.56;;;-4.10;86.29
83635;BME280;73596;49.482;11.238;2024-01-15T01:59:34;96738.78;;;-4.09;86.85
83635;BME280;73596;49.482;11.238;2024-01-15T02:02:00;96736.34;;;-4.12;87.28
83635;BME280;73596;49.482;11.238;2024-01-15T02:04:29;96731.94;;;-4.06;87.25
83635;BME280;73596;49.482;11.238;2024-01-15T02:06:54;96736.88;;;-4.03;87.54
83635;BME280;73596;49.482;11.238;2024-01-15T02:09:20;96742.69;;;-4.01;86.92
83635;BME280;73596;49.482;11.238;2024-01-15T02:11:49;96745.31;;;-4.04;87.24
83635;BME280;73596;49.482;11.238;2024-01-15T02:14:14;96744.44;;;-4.03;87.70
83635;BME280;73596;49.482;11.238;2024-01-15T02:16:40;96748.59;;;-4.02;88.22
83635;BME280;73596;49.482;11.238;2024-01-15T02:19:05;96751.13;;;-4.02;87.96
83635;BME280;73596;49.482;11.238;2024-01-15T02:21:33;96747.72;;;-4.01;88.68
83635;BME280;73596;49.482;11.238;2024-01-15T02:23:59;96749.41;;;-4.01;88.28
83635;BME280;73596;49.482;11.238;2024-01-15T02:26:24;96747.72;;;-4.01;88.66
83635;BME280;73596;49.482;11.238;2024-01-15T02:28:50;96746.78;;;-3.98;88.33
83635;BME280;73596;49.482;11.238;2024-01-15T02:31:16;96753.47;;;-3.97;88.58
83635;BME280;73596;49.482;11.238;2024-01-15T02:33:42;96740.81;;;-3.96;89.08
83635;BME280;73596;49.482;11.238;2024-01-15T02:36:08;96747.28;;;-3.89;88.54
83635;BME280;73596;49.482;11.238;2024-01-15T02:38:33;96736.34;;;-3.88;88.74
83635;BME280;73596;49.482;11.238;2024-01-15T02:40:58;96735.44;;;-3.87;89.33
83635;BME280;73596;49.482;11.238;2024-01-15T02:43:24;96738.03;;;-3.88;89.15
83635;BME280;73596;49.482;11.238;2024-01-15T02:45:49;96732.88;;;-3.85;88.96
83635;BME280;73596;49.482;11.238;2024-01-15T02:48:14;96734.50;;;-3.84;88.59
83635;BME280;73596;49.482;11.238;2024-01-15T02:50:39;96726.00;;;-3.81;89.23
83635;BME280;73596;49.482;11.238;2024-01-15T02:53:05;96736.94;;;-3.81;88.79
83635;BME280;73596;49.482;11.238;2024-01-15T02:55:30;96740.09;;;-3.76;89.27
83635;BME280;73596;49.482;11.238;2024-01-15T02:57:55;96741.75;;;-3.75;88.67
83635;BME280;73596;49.482;11.238;2024-01-15T03:00:21;96744.22;;;-3.73;88.97
83635;BME280;73596;49.482;11.238;2024-01-15T03:02:49;96747.56;;;-3.73;88.74
83635;BME280;73596;49.482;11.238;2024-01-15T03:05:15;96748.41;;;-3.72;89.43
83635;BME280;73596;49.482;11.238;2024-01-15T03:07:40;96750.69;;;-3.66;88.70
83635;BME280;73596;49.482;11.238;2024-01-15T03:10:06;96746.53;;;-3.67;88.86
83635;BME280;73596;49.482;11.238;2024-01-15T03:12:32;96742.31;;;-3.67;89.67
83635;BME280;73596;49.482;11.238;2024-01-15T03:14:57;96743.91;;;-3.64;89.67
83635;BME280;73596;49.482;11.238;2024-01-15T03:17:22;96740.53;;;-3.65;89.33
83635;BME280;73596;49.482;11.238;2024-01-15T03:19:48;96731.97;;;-3.61;89.66
83635;BME280;73596;49.482;11.238;2024-01-15T03:22:14;96728.50;;;-3.58;89.92
83635;BME280;73596;49.482;11.238;2024-01-15T03:24:40;96724.38;;;-3.59;90.02
83635;BME280;73596;49.482;11.238;2024-01-15T03:27:05;96719.84;;;-3.51;89.47
83635;BME280;73596;49.482;11.238;2024-01-15T03:29:30;96716.66;;;-3.56;90.03
83635;BME280;73596;49.482;11.238;2024-01-15T03:31:55;96721.50;;;-3.50;89.30
83635;BME280;73596;49.482;11.238;2024-01-15T03:34:21;96717.28;;;-3.50;89.78
83635;BME280;73596;49.482;11.238;2024-01-15T03:36:46;96716.50;;;-3.52;89.23
83635;BME280;73596;49.482;11.238;2024-01-15T03:39:11;96713.16;;;-3.52;89.62
83635;BME280;73596;49.482;11.238;2024-01-15T03:41:37;96711.47;;;-3.52;89.70
83635;BME280;73596;49.482;11.238;2024-01-15T03:44:02;96708.88;;;-3.50;90.43
83635;BME280;73596;49.482;11.238;2024-01-15T03:46:27;96708.94;;;-3.52;90.51
83635;BME280;73596;49.482;11.238;2024-01-15T03:48:53;96703.00;;;-3.51;90.66
83635;BME280;73596;49.482;11.238;2024-01-15T03:51:18;96707.22;;;-3.51;90.23
83635;BME280;73596;49.482;11.238;2024-01-15T03:53:44;96704.66;;;-3.50;91.15
83635;BME280;73596;49.482;11.238;2024-01-15T03:56:09;96697.91;;;-3.49;91.06
83635;BME280;73596;49.482;11.238;2024-01-15T03:58:34;96702.97;;;-3.49;90.91
83635;BME280;73596;49.482;11.238;2024-01-15T04:00:59;96702.25;;;-3.53;91.43
83635;BME280;73596;49.482;11.238;2024-01-15T04:03:25;96708.88;;;-3.50;90.76
83635;BME280;73596;49.482;11.238;2024-01-15T04:05:50;96697.13;;;-3.51;91.77
83635;BME280;73596;49.482;11.238;2024-01-15T04:08:15;96694.38;;;-3.45;91.31
83635;BME280;73596;49.482;11.238;2024-01-15T04:10:40;96691.84;;;-3.45;91.02
83635;BME280;73596;49.482;11.238;2024-01-15T04:13:06;96681.25;;;-3.32;91.27
83635;BME280;73596;49.482;11.238;2024-01-15T04:15:32;96682.22;;;-3.36;90.47
83635;BME280;73596;49.482;11.238;2024-01-15T04:17:57;96687.38;;;-3.39;90.68
83635;BME280;73596;49.482;11.238;2024-01-15T04:20:22;96684.09;;;-3.41;91.03
83635;BME280;73596;49.482;11.238;2024-01-15T04:22:47;96685.75;;;-3.40;90.56
83635;BME280;73596;49.482;11.238;2024-01-15T04:25:13;96679.81;;;-3.39;90.47
83635;BME280;73596;49.482;11.238;2024-01-15T04:27:38;96675.94;;;-3.26;90.54
83635;BME280;73596;49.482;11.238;2024-01-15T04:30:03;96677.81;;;-3.31;90.45
83635;BME280;73596;49.482;11.238;2024-01-15T04:32:29;96686.16;;;-3.29;90.14
83635;BME280;73596;49.482;11.238;2024-01-15T04:34:55;96681.16;;;-3.30;90.18
83635;BME280;73596;49.482;11.238;2024-01-15T04:37:20;96676.06;;;-3.29;90.34
83635;BME280;73596;49.482;11.238;2024-01-15T04:39:45;96680.31;;;-3.29;89.88
83635;BME280;73596;49.482;11.238;2024-01-15T04:42:10;96681.16;;;-3.30;89.95
83635;BME280;73596;49.482;11.238;2024-01-15T04:44:36;96685.16;;;-3.25;90.31
83635;BME280;73596;49.482;11.238;2024-01-15T04:47:02;96680.63;;;-3.16;89.49
83635;BME280;73596;49.482;11.238;2024-01-15T04:49:27;96681.59;;;-3.19;89.82
83635;BME280;73596;49.482;11.238;2024-01-15T04:51:54;96674.88;;;-3.20;89.36
83635;BME280;73596;49.482;11.238;2024-01-15T04:54:19;96683.66;;;-3.08;90.05
83635;BME280;73596;49.482;11.238;2024-01-15T04:56:45;96686.06;;;-3.05;89.16
83635;BME280;73596;49.482;11.238;2024-01-15T04:59:10;96671.03;;;-3.08;89.13
83635;BME280;73596;49.482;11.238;2024-01-15T05:01:36;96675.28;;;-3.09;89.41
83635;BME280;73596;49.482;11.238;2024-01-15T05:04:01;96670.41;;;-3.13;89.86
83635;BME280;73596;49.482;11.238;2024-01-15T05:06:26;96666.06;;;-3.10;89.55
83635;BME280;73596;49.482;11.238;2024-01-15T05:08:52;96667.72;;;-3.09;89.97
83635;BME280;73596;49.482;11.238;2024-01-15T05:11:17;96663.94;;;-2.99;89.98
83635;BME280;73596;49.482;11.238;2024-01-15T05:13:43;96654.31;;;-2.91;89.15
83635;BME280;73596;49.482;11.238;2024-01-15T05:16:08;96657.66;;;-2.90;88.56
83635;BME280;73596;49.482;11.238;2024-01-15T05:18:33;96652.81;;;-2.95;89.51
83635;BME280;73596;49.482;11.238;2024-01-15T05:20:59;96647.00;;;-2.97;89.52
83635;BME280;73596;49.482;11.238;2024-01-15T05:23:24;96654.38;;;-2.92;89.07
83635;BME280;73596;49.482;11.238;2024-01-15T05:25:49;96647.97;;;-2.99;89.32
83635;BME280;73596;49.482;11.238;2024-01-15T05:28:14;96647.19;;;-3.01;89.25
83635;BME280;73596;49.482;11.238;2024-01-15T05:30:40;96652.19;;;-3.00;89.43
83635;BME280;73596;49.482;11.238;2024-01-15T05:33:05;96651.63;;;-2.86;88.91
83635;BME280;73596;49.482;11.238;2024-01-15T05:35:32;96645.88;;;-2.90;88.40
83635;BME280;73596;49.482;11.238;2024-01-15T05:37:57;96648.09;;;-2.82;88.60
83635;BME280;73596;49.482;11.238;2024-01-15T05:40:22;96648.50;;;-2.73;88.07
83635;BME280;73596;49.482;11.238;2024-01-15T05:42:49;96644.53;;;-2.78;88.25
83635;BME280;73596;49.482;11.238;2024-01-15T05:45:14;96647.31;;;-2.84;87.78
83635;BME280;73596;49.482;11.238;2024-01-15T05:47:39;96647.00;;;-2.77;88.56
83635;BME280;73596;49.482;11.238;2024-01-15T05:50:05;96642.28;;;-2.84;87.88
83635;BME280;73596;49.482;11.238;2024-01-15T05:52:30;96644.69;;;-2.81;88.57
83635;BME280;73596;49.482;11.238;2024-01-15T05:54:55;96638.84;;;-2.83;88.08
83635;BME280;73596;49.482;11.238;2024-01-15T05:57:21;96642.63;;;-2.73;87.91
83635;BME280;73596;49.482;11.238;2024-01-15T05:59:46;96639.13;;;-2.89;88.48
83635;BME280;73596;49.482;11.238;2024-01-15T06:02:12;96633.56;;;-2.97;88.76
83635;BME280;73596;49.482;11.238;2024-01-15T06:04:37;96631.66;;;-3.12;87.66
83635;BME280;73596;49.482;11.238;2024-01-15T06:07:02;96644.47;;;-2.97;89.03
83635;BME280;73596;49.482;11.238;2024-01-15T06:09:28;96638.91;;;-3.05;89.37
83635;BME280;73596;49.482;11.238;2024-01-15T06:11:53;96637.34;;;-3.07;89.16
83635;BME280;73596;49.482;11.238;2024-01-15T06:14:19;96637.25;;;-3.06;88.53
83635;BME280;73596;49.482;11.238;2024-01-15T06:16:44;96638.41;;;-3.13;89.43
83635;BME280;73596;49.482;11.238;2024-01-15T06:19:09;96641.75;;;-3.12;89.75
83635;BME280;73596;49.482;11.238;2024-01-15T06:21:34;96633.22;;;-3.10;89.70
83635;BME280;73596;49.482;11.238;2024-01-15T06:24:00;96644.16;;;-3.09;89.54
83635;BME280;73596;49.482;11.238;2024-01-15T06:26:25;96637.34;;;-3.07;89.32
83635;BME280;73596;49.482;11.238;2024-01-15T06:28:50;96649.72;;;-3.01;89.56
83635;BME280;73596;49.482;11.238;2024-01-15T06:31:16;96647.75;;;-2.95;89.61
83635;BME280;73596;49.482;11.238;2024-01-15T06:33:41;96651.78;;;-2.91;90.27
83635;BME280;73596;49.482;11.238;2024-01-15T06:36:07;96643.41;;;-2.91;90.37
83635;BME280;73596;49.482;11.238;2024-01-15T06:38:32;96638.28;;;-2.90;90.97
83635;BME280;73596;49.482;11.238;2024-01-15T06:40:57;96637.66;;;-2.95;91.36
83635;BME280;73596;49.482;11.238;2024-01-15T06:43:23;96643.34;;;-2.90;91.73
83635;BME280;73596;49.482;11.238;2024-01-15T06:45:48;96643.41;;;-2.91;92.31
83635;BME280;73596;49.482;11.238;2024-01-15T06:48:13;96641.13;;;-2.97;92.14
83635;BME280;73596;49.482;11.238;2024-01-15T06:50:42;96639.63;;;-3.01;92.83
83635;BME280;73596;49.482;11.238;2024-01-15T06:53:07;96630.31;;;-3.01;92.70
83635;BME280;73596;49.482;11.238;2024-01-15T06:55:33;96638.06;;;-2.84;93.12
83635;BME280;73596;49.482;11.238;2024-01-15T06:57:58;96642.19;;;-2.83;93.00
83635;BME280;73596;49.482;11.238;2024-01-15T07:00:23;96633.78;;;-2.83;92.24
83635;BME280;73596;49.482;11.238;2024-01-15T07:02:48;96638.09;;;-2.85;92.66
83635;BME280;73596;49.482;11.238;2024-01-15T07:05:14;96642.94;;;-2.81;92.40
83635;BME280;73596;49.482;11.238;2024-01-15T07:07:39;96639.75;;;-2.84;93.35
83635;BME280;73596;49.482;11.238;2024-01-15T07:10:05;96648.00;;;-2.81;93.07
83635;BME280;73596;49.482;11.238;2024-01-15T07:12:31;96639.56;;;-2.80;93.35
83635;BME280;73596;49.482;11.238;2024-01-15T07:14:56;96646.19;;;-2.77;92.23
83635;BME280;73596;49.482;11.238;2024-01-15T07:17:22;96646.81;;;-2.72;92.66
83635;BME280;73596;49.482;11.238;2024-01-15T07:19:47;96645.00;;;-2.69;92.82
83635;BME280;73596;49.482;11.238;2024-01-15T07:22:12;96648.28;;;-2.67;92.30
83635;BME280;73596;49.482;11.238;2024-01-15T07:24:38;96645.13;;;-2.72;91.37
83635;BME280;73596;49.482;11.238;2024-01-15T07:27:03;96647.63;;;-2.72;92.38
83635;BME280;73596;49.482;11.238;2024-01-15T07:29:30;96657.47;;;-2.66;91.57
83635;BME280;73596;49.482;11.238;2024-01-15T07:31:55;96653.88;;;-2.60;91.70
83635;BME280;73596;49.482;11.238;2024-01-15T07:34:20;96654.69;;;-2.60;92.01
83635;BME280;73596;49.482;11.238;2024-01-15T07:36:47;96652.38;;;-2.64;91.84
83635;BME280;73596;49.482;11.238;2024-01-15T07:39:12;96660.47;;;-2.56;91.86
83635;BME280;73596;49.482;11.238;2024-01-15T07:41:38;96663.75;;;-2.54;92.08
83635;BME280;73596;49.482;11.238;2024-01-15T07:44:05;96662.88;;;-2.53;91.25
83635;BME280;73596;49.482;11.238;2024-01-15T07:46:30;96658.38;;;-2.46;90.61
83635;BME280;73596;49.482;11.238;2024-01-15T07:48:55;96668.22;;;-2.40;91.82
83635;BME280;73596;49.482;11.238;2024-01-15T07:51:24;96658.44;;;-2.48;91.95
83635;BME280;73596;49.482;11.238;2024-01-15T07:53:53;96667.72;;;-2.48;91.88
83635;BME280;73596;49.482;11.238;2024-01-15T07:56:19;96658.69;;;-2.54;91.85
83635;BME280;73596;49.482;11.238;2024-01-15T07:58:44;96663.50;;;-2.48;91.54
83635;BME280;73596;49.482;11.238;2024-01-15T08:01:10;96666.81;;;-2.47;91.47
83635;BME280;73596;49.482;11.238;2024-01-15T08:03:35;96672.81;;;-2.50;91.65
83635;BME280;73596;49.482;11.238;2024-01-15T08:06:00;96661.00;;;-2.49;91.25
83635;BME280;73596;49.482;11.238;2024-01-15T08:08:26;96661.59;;;-2.43;91.66
83635;BME280;73596;49.482;11.238;2024-01-15T08:10:54;96667.44;;;-2.42;91.61
83635;BME280;73596;49.482;11.238;2024-01-15T08:13:19;96667.31;;;-2.39;91.40
83635;BME280;73596;49.482;11.238;2024-01-15T08:15:45;96662.69;;;-2.30;90.79
83635;BME280;73596;49.482;11.238;2024-01-15T08:18:10;96665.53;;;-2.37;90.66
83635;BME280;73596;49.482;11.238;2024-01-15T08:20:36;96665.41;;;-2.34;90.97
83635;BME280;73596;49.482;11.238;2024-01-15T08:23:01;96659.81;;;-2.41;90.86
83635;BME280;73596;49.482;11.238;2024-01-15T08:25:27;96671.44;;;-2.37;91.94
83635;BME280;73596;49.482;11.238;2024-01-15T08:27:52;96667.81;;;-2.31;90.70
83635;BME280;73596;49.482;11.238;2024-01-15T08:30:17;96658.66;;;-2.34;91.19
83635;BME280;73596;49.482;11.238;2024-01-15T08:32:47;96662.63;;;-2.28;91.10
83635;BME280;73596;49.482;11.238;2024-01-15T08:35:12;96666.94;;;-2.30;90.86
83635;BME280;73596;49.482;11.238;2024-01-15T08:37:38;96649.78;;;-2.24;91.29
83635;BME280;73596;49.482;11.238;2024-01-15T08:40:04;96664.13;;;-2.24;91.11
83635;BME280;73596;49.482;11.238;2024-01-15T08:42:29;96657.91;;;-2.17;90.38
83635;BME280;73596;49.482;11.238;2024-01-15T08:44:55;96661.34;;;-2.18;91.10
83635;BME280;73596;49.482;11.238;2024-01-15T08:47:20;96657.25;;;-2.21;90.76
83635;BME280;73596;49.482;11.238;2024-01-15T08:49:46;96655.47;;;-2.19;90.47
83635;BME280;73596;49.482;11.238;2024-01-15T08:52:11;96658.53;;;-2.12;90.14
83635;BME280;73596;49.482;11.238;2024-01-15T08:54:37;96657.75;;;-2.13;90.87
83635;BME280;73596;49.482;11.238;2024-01-15T08:57:02;96659.38;;;-2.12;90.74
83635;BME280;73596;49.482;11.238;2024-01-15T08:59:27;96661.16;;;-2.14;89.90
83635;BME280;73596;49.482;11.238;2024-01-15T09:01:53;96661.97;;;-2.13;90.18
83635;BME280;73596;49.482;11.238;2024-01-15T09:04:19;96657.66;;;-2.11;90.22
83635;BME280;73596;49.482;11.238;2024-01-15T09:06:47;96656.09;;;-2.14;89.90
83635;BME280;73596;49.482;11.238;2024-01-15T09:09:13;96650.91;;;-2.11;90.32
83635;BME280;73596;49.482;11.238;2024-01-15T09:11:40;96658.34;;;-2.08;90.39
83635;BME280;73596;49.482;11.238;2024-01-15T09:14:05;96652.47;;;-2.08;89.90
83635;BME280;73596;49.482;11.238;2024-01-15T09:16:30;96654.88;;;-2.05;90.18
83635;BME280;73596;49.482;11.238;2024-01-15T09:18:56;96659.16;;;-2.07;89.89
83635;BME280;73596;49.482;11.238;2024-01-15T09:21:25;96660.69;;;-2.03;90.11
83635;BME280;73596;49.482;11.238;2024-01-15T09:23:50;96661.78;;;-1.90;89.07
83635;BME280;73596;49.482;11.238;2024-01-15T09:26:16;96659.03;;;-1.85;89.22
83635;BME280;73596;49.482;11.238;2024-01-15T09:28:41;96657.47;;;-1.88;89.14
83635;BME280;73596;49.482;11.238;2024-01-15T09:31:06;96659.59;;;-1.98;89.94
83635;BME280;73596;49.482;11.238;2024-01-15T09:33:32;96669.09;;;-2.03;91.07
83635;BME280;73596;49.482;11.238;2024-01-15T09:35:57;96666.28;;;-1.97;90.88
83635;BME280;73596;49.482;11.238;2024-01-15T09:38:22;96663.50;;;-1.90;90.91
83635;BME280;73596;49.482;11.238;2024-01-15T09:40:49;96664.56;;;-1.96;90.74
83635;BME280;73596;49.482;11.238;2024-01-15T09:43:16;96668.47;;;-1.89;91.49
83635;BME280;73596;49.482;11.238;2024-01-15T09:45:42;96664.16;;;-1.87;91.08
83635;BME280;73596;49.482;11.238;2024-01-15T09:48:08;96666.69;;;-1.87;90.81
83635;BME280;73596;49.482;11.238;2024-01-15T09:50:33;96666.56;;;-1.84;91.05
83635;BME280;73596;49.482;11.238;2024-01-15T09:52:59;96668.25;;;-1.84;90.89
83635;BME280;73596;49.482;11.238;2024-01-15T09:55:25;96662.56;;;-1.89;90.90
83635;BME280;73596;49.482;11.238;2024-01-15T09:57:50;96663.53;;;-1.92;90.17
83635;BME280;73596;49.482;11.238;2024-01-15T10:00:17;96663.28;;;-1.86;90.66
83635;BME280;73596;49.482;11.238;2024-01-15T10:02:43;96665.47;;;-1.78;89.76
83635;BME280;73596;49.482;11.238;2024-01-15T10:05:08;96656.66;;;-1.70;89.51
83635;BME280;73596;49.482;11.238;2024-01-15T10:07:35;96645.13;;;-1.77;89.11
83635;BME280;73596;49.482;11.238;2024-01-15T10:10:01;96648.56;;;-1.78;89.94
83635;BME280;73596;49.482;11.238;2024-01-15T10:12:26;96651.09;;;-1.78;89.52
83635;BME280;73596;49.482;11.238;2024-01-15T10:14:52;96645.91;;;-1.75;89.80
83635;BME280;73596;49.482;11.238;2024-01-15T10:17:17;96638.97;;;-1.71;89.26
83635;BME280;73596;49.482;11.238;2024-01-15T10:19:44;96639.94;;;-1.74;89.43
83635;BME280;73596;49.482;11.238;2024-01-15T10:22:10;96638.75;;;-1.67;89.29
83635;BME280;73596;49.482;11.238;2024-01-15T10:24:40;96635.22;;;-1.63;88.84
83635;BME280;73596;49.482;11.238;2024-01-15T10:27:06;96635.28;;;-1.64;89.25
83635;BME280;73596;49.482;11.238;2024-01-15T10:29:32;96629.34;;;-1.63;89.26
83635;BME280;73596;49.482;11.238;2024-01-15T10:31:58;96629.84;;;-1.57;89.53
83635;BME280;73596;49.482;11.238;2024-01-15T10:34:24;96623.03;;;-1.55;89.85
83635;BME280;73596;49.482;11.238;2024-01-15T10:36:50;96629.06;;;-1.57;90.16
83635;BME280;73596;49.482;11.238;2024-01-15T10:39:23;96615.72;;;-1.61;90.23
83635;BME280;73596;49.482;11.238;2024-01-15T10:41:49;96619.06;;;-1.60;90.55
83635;BME280;73596;49.482;11.238;2024-01-15T10:44:16;96606.41;;;-1.60;90.24
83635;BME280;73596;49.482;11.238;2024-01-15T10:46:42;96607.28;;;-1.61;90.25
83635;BME280;73596;49.482;11.238;2024-01-15T10:49:08;96601.81;;;-1.52;90.64
83635;BME280;73596;49.482;11.238;2024-01-15T10:51:34;96600.69;;;-1.47;89.79
83635;BME280;73596;49.482;11.238;2024-01-15T10:53:59;96600.09;;;-1.52;89.03
83635;BME280;73596;49.482;11.238;2024-01-15T10:56:27;96600.31;;;-1.56;89.12
83635;BME280;73596;49.482;11.238;2024-01-15T10:58:54;96601.81;;;-1.52;89.55
83635;BME280;73596;49.482;11.238;2024-01-15T11:01:19;96601.97;;;-1.55;88.95
83635;BME280;73596;49.482;11.238;2024-01-15T11:03:46;96594.72;;;-1.63;89.14
83635;BME280;73596;49.482;11.238;2024-01-15T11:06:19;96590.50;;;-1.62;89.58
83635;BME280;73596;49.482;11.238;2024-01-15T11:08:50;96597.03;;;-1.58;89.19
83635;BME280;73596;49.482;11.238;2024-01-15T11:11:17;96596.91;;;-1.55;89.25
83635;BME280;73596;49.482;11.238;2024-01-15T11:13:43;96589.75;;;-1.47;89.71
83635;BME280;73596;49.482;11.238;2024-01-15T11:16:14;96587.97;;;-1.45;89.73
83635;BME280;73596;49.482;11.238;2024-01-15T11:18:41;96591.59;;;-1.51;89.84
83635;BME280;73596;49.482;11.238;2024-01-15T11:23:56;96573.38;;;-1.57;90.04
83635;BME280;73596;49.482;11.238;2024-01-15T11:29:07;96571.63;;;-1.57;90.66
83635;BME280;73596;49.482;11.238;2024-01-15T11:34:06;96577.31;;;-1.52;90.65
83635;BME280;73596;49.482;11.238;2024-01-15T11:41:54;96566.31;;;-1.34;90.57
83635;BME280;73596;49.482;11.238;2024-01-15T11:44:20;96564.13;;;-1.41;90.01
83635;BME280;73596;49.482;11.238;2024-01-15T11:46:57;96567.41;;;-1.39;90.63
83635;BME280;73596;49.482;11.238;2024-01-15T11:50:01;96567.50;;;-1.41;89.98
83635;BME280;73596;49.482;11.238;2024-01-15T11:52:52;96575.47;;;-1.31;89.99
83635;BME280;73596;49.482;11.238;2024-01-15T11:55:30;96574.63;;;-1.32;89.82
83635;BME280;73596;49.482;11.238;2024-01-15T11:58:00;96564.59;;;-1.33;90.20
83635;BME280;73596;49.482;11.238;2024-01-15T12:00:26;96563.03;;;-1.36;90.30
83635;BME280;73596;49.482;11.238;2024-01-15T12:02:52;96557.97;;;-1.36;90.20
83635;BME280;73596;49.482;11.238;2024-01-15T12:05:19;96558.94;;;-1.38;90.59
83635;BME280;73596;49.482;11.238;2024-01-15T12:07:47;96563.03;;;-1.36;90.46
83635;BME280;73596;49.482;11.238;2024-01-15T12:10:15;96561.38;;;-1.37;89.91
83635;BME280;73596;49.482;11.238;2024-01-15T12:13:04;96558.09;;;-1.39;89.93
83635;BME280;73596;49.482;11.238;2024-01-15T12:15:31;96556.13;;;-1.32;90.33
83635;BME280;73596;49.482;11.238;2024-01-15T12:17:58;96566.38;;;-1.35;90.47
83635;BME280;73596;49.482;11.238;2024-01-15T12:20:24;96555.66;;;-1.40;90.77
83635;BME280;73596;49.482;11.238;2024-01-15T12:22:50;96556.41;;;-1.55;91.05
83635;BME280;73596;49.482;11.238;2024-01-15T12:25:15;96551.69;;;-1.63;90.95
83635;BME280;73596;49.482;11.238;2024-01-15T12:27:41;96550.41;;;-1.71;91.18
83635;BME280;73596;49.482;11.238;2024-01-15T12:30:07;96556.06;;;-1.66;90.92
83635;BME280;73596;49.482;11.238;2024-01-15T12:32:32;96557.78;;;-1.67;91.15
83635;BME280;73596;49.482;11.238;2024-01-15T12:34:58;96558.00;;;-1.71;91.96
83635;BME280;73596;49.482;11.238;2024-01-15T12:37:23;96559.50;;;-1.67;91.65
83635;BME280;73596;49.482;11.238;2024-01-15T12:39:49;96564.88;;;-1.56;91.68
83635;BME280;73596;49.482;11.238;2024-01-15T12:42:14;96577.66;;;-1.59;91.85
83635;BME280;73596;49.482;11.238;2024-01-15T12:44:42;96564.34;;;-1.63;91.59
83635;BME280;73596;49.482;11.238;2024-01-15T12:47:07;96565.31;;;-1.65;91.46
83635;BME280;73596;49.482;11.238;2024-01-15T12:49:32;96564.63;;;-1.69;91.41
83635;BME280;73596;49.482;11.238;2024-01-15T12:51:58;96564.63;;;-1.69;91.45
83635;BME280;73596;49.482;11.238;2024-01-15T12:54:24;96562.91;;;-1.68;91.37
83635;BME280;73596;49.482;11.238;2024-01-15T12:56:50;96551.38;;;-1.57;92.09